ZSPD/PVG METAR and TAF weather

Enter ICAO airport designator
Station Type Date Time Source
ZSPD METAR 2019/08/22 05:30 UTC NOAA

ZSPD 220530Z 09005MPS 010V120 9999 FEW023 31/26 Q1008 NOSIG


Station Type Date Time Source
ZSPD Decoded METAR 2019/08/22 05:30 UTC NOAA

Station name not available
Aug 22, 2019 - 01:30 AM EDT / 2019.08.22 0530 UTC
Wind: from the E (090 degrees) at 11 MPH (10 KT) (direction variable):0
Visibility: greater than 7 mile(s):0
Sky conditions: mostly clear
Temperature: 87 F (31 C)
Heat index: 99.7 F (37.6 C):1
Dew Point: 78 F (26 C)
Relative Humidity: 74%
Pressure (altimeter): 29.77 in. Hg (1008 hPa)
ob: ZSPD 220530Z 09005MPS 010V120 9999 FEW023 31/26 Q1008 NOSIG
cycle: 5

Station Type Date Time Source
ZSPD TAF 2019/08/22 06:03 UTC NOAA

TAF TAF ZSPD 220315Z 2206/2306 07004MPS 6000 SCT015 TX33/2206Z TN25/2220Z

Example: see airport list